createdAt,value
2023-03-24T00:01:05.654Z,2.20
2023-03-24T00:03:36.765Z,2.92
2023-03-24T00:06:07.613Z,3.05
2023-03-24T00:08:38.642Z,2.92
2023-03-24T00:11:10.136Z,2.50
2023-03-24T00:13:40.795Z,2.72
2023-03-24T00:16:14.820Z,2.85
2023-03-24T00:18:45.262Z,2.70
2023-03-24T00:21:16.138Z,2.35
2023-03-24T00:23:48.074Z,2.33
2023-03-24T00:26:19.360Z,2.70
2023-03-24T00:28:52.090Z,2.72
2023-03-24T00:31:25.043Z,2.75
2023-03-24T00:33:55.614Z,2.55
2023-03-24T00:36:26.748Z,2.55
2023-03-24T00:38:58.204Z,2.88
2023-03-24T00:41:29.190Z,3.75
2023-03-24T00:44:03.740Z,3.08
2023-03-24T00:46:35.634Z,3.38
2023-03-24T00:49:07.875Z,3.72
2023-03-24T00:51:39.778Z,4.38
2023-03-24T00:54:12.899Z,3.83
2023-03-24T00:56:43.957Z,4.10
2023-03-24T00:59:14.210Z,5.20
2023-03-24T01:01:45.550Z,5.22
2023-03-24T01:04:15.769Z,5.03
2023-03-24T01:06:45.465Z,4.97
2023-03-24T01:09:15.191Z,5.63
2023-03-24T01:11:44.713Z,5.30
2023-03-24T01:14:15.176Z,5.07
2023-03-24T01:16:46.830Z,5.63
2023-03-24T01:19:17.039Z,4.65
2023-03-24T01:21:46.537Z,5.45
2023-03-24T01:24:17.089Z,6.25
2023-03-24T01:26:47.443Z,6.20
2023-03-24T01:29:17.665Z,7.90
2023-03-24T01:31:48.746Z,6.53
2023-03-24T01:34:18.851Z,6.50
2023-03-24T01:36:48.307Z,6.30
2023-03-24T01:39:18.201Z,6.78
2023-03-24T01:41:47.780Z,5.75
2023-03-24T01:44:29.718Z,6.88
2023-03-24T01:47:01.700Z,7.07
2023-03-24T01:49:37.022Z,7.85
2023-03-24T01:52:11.290Z,6.65
2023-03-24T01:54:44.656Z,8.23
2023-03-24T01:57:16.236Z,8.38
2023-03-24T01:59:55.817Z,8.00
2023-03-24T02:02:28.041Z,7.40
2023-03-24T02:05:03.797Z,7.53
2023-03-24T02:07:35.988Z,7.22
2023-03-24T02:10:09.758Z,8.05
2023-03-24T02:12:39.080Z,8.20
2023-03-24T02:15:11.952Z,8.60
2023-03-24T02:17:59.001Z,8.55
2023-03-24T02:20:48.212Z,9.35
2023-03-24T02:24:08.618Z,8.60
2023-03-24T02:27:02.810Z,9.07
2023-03-24T02:30:10.528Z,8.35
2023-03-24T02:33:08.086Z,9.60
2023-03-24T02:36:33.713Z,9.05
2023-03-24T02:39:41.984Z,10.02
2023-03-24T02:42:25.515Z,9.20
2023-03-24T02:45:09.945Z,8.70
2023-03-24T02:47:47.900Z,9.57
2023-03-24T02:50:25.966Z,9.13
2023-03-24T02:53:01.991Z,8.95
2023-03-24T02:55:36.670Z,8.80
2023-03-24T02:58:12.849Z,10.15
2023-03-24T03:00:49.205Z,8.43
2023-03-24T03:03:25.753Z,9.55
2023-03-24T03:05:59.189Z,9.05
2023-03-24T03:08:32.706Z,9.70
2023-03-24T03:11:04.259Z,10.15
2023-03-24T03:13:40.013Z,10.38
2023-03-24T03:16:15.584Z,9.38
2023-03-24T03:18:50.448Z,10.00
2023-03-24T03:21:24.255Z,10.50
2023-03-24T03:24:02.696Z,11.13
2023-03-24T03:26:34.429Z,11.85
2023-03-24T03:29:10.424Z,10.80
2023-03-24T03:31:43.850Z,11.95
2023-03-24T03:34:20.131Z,11.85
2023-03-24T03:36:55.059Z,11.05
2023-03-24T03:39:29.971Z,11.10
2023-03-24T03:41:59.880Z,11.30
2023-03-24T03:44:30.896Z,11.00
2023-03-24T03:47:01.727Z,10.82
2023-03-24T03:49:31.172Z,11.77
2023-03-24T03:52:00.976Z,11.38
2023-03-24T03:54:31.936Z,11.88
2023-03-24T03:57:01.861Z,12.20
2023-03-24T03:59:35.742Z,11.55
2023-03-24T04:02:19.829Z,12.40
2023-03-24T04:05:28.477Z,11.30
2023-03-24T04:08:13.825Z,10.90
2023-03-24T04:11:04.892Z,10.02
2023-03-24T04:13:45.396Z,11.23
2023-03-24T04:16:22.271Z,9.33
2023-03-24T04:19:00.644Z,10.65
2023-03-24T04:21:48.886Z,9.52
2023-03-24T04:24:30.321Z,9.70
2023-03-24T04:29:42.561Z,10.05
2023-03-24T04:32:20.343Z,10.35
2023-03-24T04:34:55.138Z,9.50
2023-03-24T04:37:28.493Z,8.68
2023-03-24T04:40:00.809Z,9.32
2023-03-24T04:42:36.218Z,9.70
2023-03-24T04:45:08.619Z,9.60
2023-03-24T04:47:44.346Z,8.68
2023-03-24T04:50:14.961Z,10.50
2023-03-24T04:52:45.220Z,10.75
2023-03-24T04:55:38.956Z,11.07
2023-03-24T04:58:08.129Z,10.65
2023-03-24T05:00:38.447Z,9.40
2023-03-24T05:03:10.075Z,10.60
2023-03-24T05:05:39.763Z,8.75
2023-03-24T05:08:09.676Z,8.93
2023-03-24T05:10:40.550Z,8.48
2023-03-24T05:13:10.344Z,9.25
2023-03-24T05:15:40.477Z,9.93
2023-03-24T05:18:11.598Z,9.55
2023-03-24T05:20:42.247Z,9.10
2023-03-24T05:23:11.586Z,8.75
2023-03-24T05:25:41.311Z,9.52
2023-03-24T05:28:11.754Z,9.75
2023-03-24T05:30:41.779Z,9.68
2023-03-24T05:33:12.539Z,9.75
2023-03-24T05:35:42.523Z,9.23
2023-03-24T05:38:11.980Z,9.05
2023-03-24T05:40:41.692Z,10.25
2023-03-24T05:43:12.569Z,9.05
2023-03-24T05:45:42.964Z,8.82
2023-03-24T05:48:14.288Z,10.20
2023-03-24T05:50:44.195Z,9.68
2023-03-24T05:53:13.400Z,8.20
2023-03-24T05:55:43.274Z,9.20
2023-03-24T05:58:12.973Z,8.23
2023-03-24T06:00:42.808Z,7.53
2023-03-24T06:03:14.364Z,7.38
2023-03-24T06:05:46.427Z,8.07
2023-03-24T06:08:17.336Z,7.68
2023-03-24T06:10:47.085Z,7.88
2023-03-24T06:13:16.764Z,7.28
2023-03-24T06:15:48.342Z,7.63
2023-03-24T06:18:19.668Z,7.22
2023-03-24T06:20:56.731Z,7.70
2023-03-24T06:23:28.060Z,7.95
2023-03-24T06:25:58.509Z,8.02
2023-03-24T06:28:30.639Z,7.88
2023-03-24T06:31:00.948Z,8.25
2023-03-24T06:33:32.705Z,8.43
2023-03-24T06:36:02.361Z,8.27
2023-03-24T06:38:31.688Z,9.23
2023-03-24T06:41:02.656Z,9.55
2023-03-24T06:43:32.158Z,9.60
2023-03-24T06:46:02.385Z,9.87
2023-03-24T06:48:33.929Z,8.73
2023-03-24T06:51:04.213Z,9.30
2023-03-24T06:53:33.662Z,9.85
2023-03-24T06:56:03.605Z,9.05
2023-03-24T06:58:33.925Z,9.40
2023-03-24T07:01:03.996Z,8.57
2023-03-24T07:03:34.988Z,8.25
2023-03-24T07:06:05.437Z,8.80
2023-03-24T07:08:38.598Z,9.20
2023-03-24T07:11:10.040Z,8.25
2023-03-24T07:13:39.809Z,9.10
2023-03-24T07:16:10.110Z,9.43
2023-03-24T07:18:41.412Z,9.47
2023-03-24T07:21:11.170Z,9.73
2023-03-24T07:23:40.431Z,9.30
2023-03-24T07:26:10.128Z,9.20
2023-03-24T07:28:39.574Z,9.68
2023-03-24T07:31:12.553Z,9.55
2023-03-24T07:33:43.757Z,10.32
2023-03-24T07:36:13.709Z,9.82
2023-03-24T07:38:43.105Z,9.13
2023-03-24T07:41:13.437Z,8.25
2023-03-24T07:43:42.616Z,8.05
2023-03-24T07:46:12.247Z,8.43
2023-03-24T07:48:43.564Z,7.97
2023-03-24T07:51:13.431Z,7.25
2023-03-24T07:53:45.974Z,7.25
2023-03-24T07:56:16.020Z,8.43
2023-03-24T07:58:45.896Z,7.07
2023-03-24T08:01:15.915Z,6.95
2023-03-24T08:03:49.389Z,7.78
2023-03-24T08:06:19.246Z,6.15
2023-03-24T08:08:48.481Z,6.90
2023-03-24T08:11:18.277Z,6.63
2023-03-24T08:13:47.979Z,6.80
2023-03-24T08:16:17.826Z,7.07
2023-03-24T08:18:48.965Z,7.43
2023-03-24T08:21:18.968Z,6.75
2023-03-24T08:23:48.161Z,7.13
2023-03-24T08:26:17.987Z,8.07
2023-03-24T08:28:47.329Z,7.63
2023-03-24T08:31:17.072Z,8.07
2023-03-24T08:33:47.732Z,7.95
2023-03-24T08:36:17.834Z,8.52
2023-03-24T08:38:48.456Z,7.88
2023-03-24T08:43:47.537Z,9.35
2023-03-24T08:46:17.559Z,8.60
2023-03-24T08:48:49.277Z,7.95
2023-03-24T08:51:19.743Z,8.73
2023-03-24T08:53:49.101Z,8.50
2023-03-24T08:56:18.696Z,8.60
2023-03-24T08:58:48.926Z,9.93
2023-03-24T09:01:18.938Z,11.05
2023-03-24T09:03:50.127Z,9.40
2023-03-24T09:06:20.210Z,9.65
2023-03-24T09:08:49.430Z,8.00
2023-03-24T09:11:21.619Z,10.13
2023-03-24T09:13:51.249Z,8.85
2023-03-24T09:16:21.511Z,10.13
2023-03-24T09:18:52.328Z,8.97
2023-03-24T09:21:22.886Z,8.85
2023-03-24T09:23:52.652Z,8.75
2023-03-24T09:26:23.297Z,8.95
2023-03-24T09:28:52.816Z,9.65
2023-03-24T09:31:22.616Z,8.43
2023-03-24T09:33:53.561Z,8.25
2023-03-24T09:36:23.645Z,8.07
2023-03-24T09:38:53.556Z,7.85
2023-03-24T09:41:28.194Z,8.98
2023-03-24T09:44:01.482Z,8.20
2023-03-24T09:46:36.169Z,8.50
2023-03-24T09:49:07.044Z,8.60
2023-03-24T09:51:41.519Z,7.90
2023-03-24T09:54:18.602Z,7.05
2023-03-24T09:56:51.233Z,7.72
2023-03-24T09:59:23.438Z,7.38
2023-03-24T10:01:53.107Z,7.20
2023-03-24T10:04:26.718Z,8.32
2023-03-24T10:07:01.797Z,7.32
2023-03-24T10:09:32.793Z,7.90
2023-03-24T10:12:16.580Z,7.07
2023-03-24T10:14:54.163Z,8.15
2023-03-24T10:17:32.642Z,7.15
2023-03-24T10:20:12.796Z,7.03
2023-03-24T10:22:50.222Z,7.53
2023-03-24T10:25:23.209Z,7.00
2023-03-24T10:27:57.394Z,7.72
2023-03-24T10:30:30.327Z,7.88
2023-03-24T10:33:00.136Z,7.70
2023-03-24T10:35:35.094Z,8.75
2023-03-24T10:38:13.281Z,7.07
2023-03-24T10:40:43.547Z,8.52
2023-03-24T10:43:13.655Z,7.55
2023-03-24T10:45:45.580Z,7.93
2023-03-24T10:48:17.576Z,7.45
2023-03-24T10:50:49.331Z,7.25
2023-03-24T10:53:20.531Z,8.18
2023-03-24T10:55:51.108Z,6.72
2023-03-24T10:58:30.838Z,6.63
2023-03-24T11:01:01.835Z,6.32
2023-03-24T11:03:33.533Z,6.47
2023-03-24T11:06:07.220Z,6.18
2023-03-24T11:08:39.377Z,5.88
2023-03-24T11:11:32.237Z,5.97
2023-03-24T11:14:04.285Z,6.93
2023-03-24T11:16:37.861Z,5.82
2023-03-24T11:19:19.243Z,5.75
2023-03-24T11:21:59.721Z,4.85
2023-03-24T11:24:31.393Z,6.25
2023-03-24T11:27:03.504Z,5.57
2023-03-24T11:29:35.797Z,5.60
2023-03-24T11:32:13.903Z,4.95
2023-03-24T11:34:49.186Z,5.20
2023-03-24T11:37:21.831Z,5.70
2023-03-24T11:40:11.084Z,4.90
2023-03-24T11:42:45.939Z,4.97
2023-03-24T11:45:29.442Z,5.07
2023-03-24T11:48:00.872Z,4.75
2023-03-24T11:50:33.349Z,5.63
2023-03-24T11:53:12.890Z,4.82
2023-03-24T11:55:48.688Z,5.38
2023-03-24T11:58:29.409Z,4.78
2023-03-24T12:01:04.602Z,4.78
2023-03-24T12:04:00.906Z,4.07
2023-03-24T12:06:42.460Z,2.95
2023-03-24T12:09:22.769Z,3.88
2023-03-24T12:12:14.098Z,3.95
2023-03-24T12:14:56.412Z,3.90
2023-03-24T12:17:30.555Z,3.70
2023-03-24T12:20:11.597Z,3.97
2023-03-24T12:22:52.288Z,3.38
2023-03-24T12:25:42.760Z,4.25
2023-03-24T12:31:02.542Z,3.58
2023-03-24T12:33:45.170Z,4.10
2023-03-24T12:36:32.137Z,3.88
2023-03-24T12:39:06.632Z,3.63
2023-03-24T12:42:07.634Z,3.65
2023-03-24T12:45:06.727Z,3.95
2023-03-24T12:47:56.595Z,3.80
2023-03-24T12:50:39.160Z,3.70
2023-03-24T12:53:26.991Z,4.05
2023-03-24T12:55:59.926Z,3.25
2023-03-24T12:58:40.177Z,3.00
2023-03-24T13:01:17.487Z,3.85
2023-03-24T13:03:49.608Z,3.67
2023-03-24T13:06:26.346Z,3.17
2023-03-24T13:09:08.286Z,3.40
2023-03-24T13:11:45.202Z,2.90
2023-03-24T13:14:20.726Z,3.58
2023-03-24T13:16:52.442Z,3.03
2023-03-24T13:19:25.166Z,3.30
2023-03-24T13:21:57.742Z,3.25
2023-03-24T13:24:28.467Z,2.95
2023-03-24T13:27:07.573Z,3.25
2023-03-24T13:30:09.925Z,3.15
2023-03-24T13:32:42.993Z,4.00
2023-03-24T13:35:19.745Z,3.38
2023-03-24T13:37:53.024Z,3.63
2023-03-24T13:40:24.375Z,3.33
2023-03-24T13:42:57.111Z,3.45
2023-03-24T13:45:40.456Z,3.45
2023-03-24T13:48:28.177Z,3.40
2023-03-24T13:51:01.670Z,2.75
2023-03-24T13:53:40.595Z,3.05
2023-03-24T13:56:11.616Z,3.22
2023-03-24T13:59:06.889Z,3.90
2023-03-24T14:01:40.259Z,3.55
2023-03-24T14:04:28.719Z,2.95
2023-03-24T14:07:00.035Z,2.92
2023-03-24T14:09:33.291Z,2.83
2023-03-24T14:12:21.484Z,2.83
2023-03-24T14:15:20.402Z,2.28
2023-03-24T14:17:56.804Z,2.97
2023-03-24T14:20:35.381Z,2.70
2023-03-24T14:23:05.708Z,2.90
2023-03-24T14:25:37.137Z,2.80
2023-03-24T14:28:24.232Z,2.58
2023-03-24T14:31:13.579Z,2.60
2023-03-24T14:34:02.697Z,2.20
2023-03-24T14:36:39.851Z,2.70
2023-03-24T14:39:13.935Z,2.30
2023-03-24T14:41:44.602Z,2.70
2023-03-24T14:44:13.973Z,2.28
2023-03-24T14:46:50.598Z,2.15
2023-03-24T14:49:25.720Z,2.70
2023-03-24T14:52:02.213Z,2.28
2023-03-24T14:54:38.561Z,2.92
2023-03-24T14:57:10.044Z,2.60
2023-03-24T14:59:45.930Z,2.00
2023-03-24T15:02:29.657Z,2.50
2023-03-24T15:05:32.149Z,2.30
2023-03-24T15:08:13.085Z,2.33
2023-03-24T15:10:46.787Z,2.58
2023-03-24T15:13:38.624Z,2.38
2023-03-24T15:16:18.443Z,2.10
2023-03-24T15:19:00.417Z,1.90
2023-03-24T15:21:35.992Z,2.33
2023-03-24T15:24:28.277Z,2.60
2023-03-24T15:27:21.814Z,2.25
2023-03-24T15:29:57.915Z,1.92
2023-03-24T15:32:32.459Z,2.00
2023-03-24T15:35:06.934Z,2.22
2023-03-24T15:37:41.746Z,1.70
2023-03-24T15:40:39.391Z,2.30
2023-03-24T15:43:19.494Z,3.17
2023-03-24T15:46:04.691Z,1.88
2023-03-24T15:48:39.663Z,2.38
2023-03-24T15:51:12.582Z,2.25
2023-03-24T15:53:49.588Z,2.88
2023-03-24T15:56:22.181Z,2.63
2023-03-24T15:58:55.079Z,3.03
2023-03-24T16:01:31.757Z,1.50
2023-03-24T16:04:03.297Z,1.25
2023-03-24T16:06:36.603Z,1.92
2023-03-24T16:09:10.958Z,2.30
2023-03-24T16:11:41.769Z,3.70
2023-03-24T16:14:22.892Z,1.55
2023-03-24T16:16:56.608Z,2.20
2023-03-24T16:19:26.554Z,2.70
2023-03-24T16:21:56.277Z,3.15
2023-03-24T16:24:26.924Z,2.35
2023-03-24T16:26:56.558Z,2.65
2023-03-24T16:29:26.253Z,2.17
2023-03-24T16:31:58.998Z,3.30
2023-03-24T16:34:28.362Z,2.65
2023-03-24T16:36:57.898Z,3.38
2023-03-24T16:39:30.047Z,2.95
2023-03-24T16:41:59.950Z,3.22
2023-03-24T16:44:29.242Z,3.05
2023-03-24T16:46:59.215Z,3.05
2023-03-24T16:49:29.956Z,2.88
2023-03-24T16:51:59.743Z,3.17
2023-03-24T16:54:30.456Z,3.08
2023-03-24T16:57:00.878Z,3.17
2023-03-24T16:59:30.569Z,3.15
2023-03-24T17:02:05.414Z,4.23
2023-03-24T17:04:35.357Z,3.20
2023-03-24T17:07:04.987Z,4.50
2023-03-24T17:09:36.536Z,3.72
2023-03-24T17:12:06.958Z,4.10
2023-03-24T17:14:36.640Z,3.78
2023-03-24T17:17:07.628Z,3.07
2023-03-24T17:19:38.008Z,3.42
2023-03-24T17:22:09.162Z,3.97
2023-03-24T17:24:42.515Z,4.15
2023-03-24T17:27:28.089Z,3.13
2023-03-24T17:30:23.160Z,3.20
2023-03-24T17:33:00.045Z,3.25
2023-03-24T17:35:51.093Z,3.95
2023-03-24T17:38:28.168Z,2.88
2023-03-24T17:41:06.378Z,3.92
2023-03-24T17:43:36.518Z,3.42
2023-03-24T17:46:06.227Z,4.05
2023-03-24T17:49:16.900Z,3.87
2023-03-24T17:51:46.205Z,3.10
2023-03-24T17:54:19.584Z,3.70
2023-03-24T17:56:50.435Z,4.15
2023-03-24T17:59:20.049Z,5.28
2023-03-24T18:01:49.294Z,5.45
2023-03-24T18:04:18.910Z,5.47
2023-03-24T18:06:48.149Z,5.25
2023-03-24T18:09:18.690Z,8.07
2023-03-24T18:11:49.673Z,7.07
2023-03-24T18:14:19.760Z,4.97
2023-03-24T18:16:49.200Z,5.80
2023-03-24T18:19:19.205Z,5.45
2023-03-24T18:21:48.444Z,5.30
2023-03-24T18:24:17.997Z,5.53
2023-03-24T18:26:49.173Z,5.93
2023-03-24T18:29:24.101Z,6.20
2023-03-24T18:31:53.347Z,5.57
2023-03-24T18:34:23.341Z,5.68
2023-03-24T18:36:53.157Z,6.15
2023-03-24T18:39:22.958Z,6.30
2023-03-24T18:41:53.630Z,5.70
2023-03-24T18:44:25.038Z,5.88
2023-03-24T18:49:24.107Z,4.60
2023-03-24T18:51:53.369Z,5.22
2023-03-24T18:54:23.350Z,4.68
2023-03-24T18:56:52.749Z,5.93
2023-03-24T18:59:23.922Z,5.97
2023-03-24T19:01:53.141Z,5.65
2023-03-24T19:04:22.885Z,6.20
2023-03-24T19:06:52.083Z,6.60
2023-03-24T19:09:23.002Z,6.65
2023-03-24T19:11:52.333Z,6.65
2023-03-24T19:14:22.541Z,5.68
2023-03-24T19:16:53.252Z,4.82
2023-03-24T19:19:23.346Z,4.60
2023-03-24T19:21:52.696Z,5.50
2023-03-24T19:24:22.492Z,5.60
2023-03-24T19:26:52.004Z,6.00
2023-03-24T19:29:22.203Z,6.18
2023-03-24T19:31:52.846Z,6.43
2023-03-24T19:36:52.277Z,6.10
2023-03-24T19:39:22.700Z,6.03
2023-03-24T19:41:52.032Z,5.65
2023-03-24T19:44:22.693Z,6.35
2023-03-24T19:46:53.510Z,6.00
2023-03-24T19:49:23.676Z,5.75
2023-03-24T19:51:52.875Z,5.57
2023-03-24T19:54:22.891Z,5.85
2023-03-24T19:56:52.244Z,5.97
2023-03-24T19:59:21.788Z,7.30
2023-03-24T20:01:51.436Z,6.38
2023-03-24T20:04:22.792Z,6.67
2023-03-24T20:09:22.048Z,5.22
2023-03-24T20:11:54.347Z,6.72
2023-03-24T20:14:24.100Z,6.25
2023-03-24T20:16:53.465Z,6.18
2023-03-24T20:19:24.618Z,6.20
2023-03-24T20:21:54.533Z,5.82
2023-03-24T20:24:24.478Z,6.85
2023-03-24T20:26:53.891Z,6.47
2023-03-24T20:29:23.641Z,7.25
2023-03-24T20:31:52.845Z,6.65
2023-03-24T20:34:23.987Z,6.68
2023-03-24T20:36:53.244Z,9.05
2023-03-24T20:39:23.292Z,6.75
2023-03-24T20:41:53.591Z,5.80
2023-03-24T20:46:52.733Z,6.47
2023-03-24T20:49:24.610Z,6.13
2023-03-24T20:51:54.402Z,7.07
2023-03-24T20:54:24.215Z,7.25
2023-03-24T20:56:54.106Z,6.70
2023-03-24T20:59:24.378Z,6.30
2023-03-24T21:01:53.596Z,7.90
2023-03-24T21:04:24.825Z,6.00
2023-03-24T21:06:54.715Z,5.50
2023-03-24T21:09:24.871Z,5.22
2023-03-24T21:11:54.493Z,5.35
2023-03-24T21:14:25.304Z,4.82
2023-03-24T21:16:55.181Z,4.88
2023-03-24T21:19:26.596Z,4.30
2023-03-24T21:24:25.940Z,3.63
2023-03-24T21:26:57.408Z,4.18
2023-03-24T21:29:27.380Z,3.65
2023-03-24T21:31:56.851Z,4.13
2023-03-24T21:34:27.973Z,3.58
2023-03-24T21:36:57.328Z,3.38
2023-03-24T21:39:27.084Z,3.38
2023-03-24T21:41:56.382Z,3.40
2023-03-24T21:44:26.618Z,3.53
2023-03-24T21:46:57.035Z,3.50
2023-03-24T21:49:28.213Z,3.80
2023-03-24T21:54:27.340Z,3.20
2023-03-24T21:56:56.599Z,4.72
2023-03-24T21:59:26.628Z,3.33
2023-03-24T22:01:57.683Z,6.60
2023-03-24T22:04:28.763Z,5.70
2023-03-24T22:06:58.064Z,5.38
2023-03-24T22:09:27.777Z,4.07
2023-03-24T22:11:57.561Z,3.80
2023-03-24T22:14:27.620Z,4.07
2023-03-24T22:16:57.174Z,5.13
2023-03-24T22:19:28.657Z,4.25
2023-03-24T22:22:01.896Z,5.57
2023-03-24T22:24:32.222Z,4.90
2023-03-24T22:27:02.448Z,5.82
2023-03-24T22:29:32.283Z,6.28
2023-03-24T22:32:01.643Z,5.55
2023-03-24T22:34:32.817Z,5.63
2023-03-24T22:37:02.538Z,5.72
2023-03-24T22:39:34.340Z,6.07
2023-03-24T22:42:03.633Z,5.25
2023-03-24T22:44:34.135Z,5.32
2023-03-24T22:47:03.772Z,5.57
2023-03-24T22:49:36.965Z,6.10
2023-03-24T22:52:06.423Z,5.22
2023-03-24T22:54:36.265Z,5.35
2023-03-24T22:57:05.791Z,5.95
2023-03-24T22:59:35.853Z,5.35
2023-03-24T23:02:09.991Z,5.97
2023-03-24T23:04:41.870Z,5.50
2023-03-24T23:09:43.276Z,5.78
2023-03-24T23:12:13.886Z,4.75
2023-03-24T23:17:16.117Z,5.50
2023-03-24T23:19:47.403Z,5.35
2023-03-24T23:22:16.895Z,5.72
2023-03-24T23:24:48.410Z,5.70
2023-03-24T23:29:47.556Z,5.65
2023-03-24T23:32:17.058Z,5.43
2023-03-24T23:34:49.000Z,5.30
2023-03-24T23:37:19.305Z,6.18
2023-03-24T23:42:19.753Z,5.88
2023-03-24T23:44:49.732Z,7.07
2023-03-24T23:47:19.125Z,6.60
2023-03-24T23:49:50.976Z,6.72
2023-03-24T23:52:20.428Z,6.65
2023-03-24T23:54:50.112Z,6.95
2023-03-24T23:57:19.317Z,6.78
2023-03-24T23:59:54.050Z,7.32
